sensor_id;sensor_type;location;lat;lon;timestamp;temperature;humidity
52621;DHT22;38515;53.160;6.990;2022-09-09T00:00:54;14.10;99.90
52621;DHT22;38515;53.160;6.990;2022-09-09T00:03:26;14.10;99.90
52621;DHT22;38515;53.160;6.990;2022-09-09T00:06:05;14.10;99.90
52621;DHT22;38515;53.160;6.990;2022-09-09T00:08:50;14.10;99.90
52621;DHT22;38515;53.160;6.990;2022-09-09T00:11:24;14.10;99.90
52621;DHT22;38515;53.160;6.990;2022-09-09T00:13:53;14.10;99.90
52621;DHT22;38515;53.160;6.990;2022-09-09T00:16:24;14.00;99.90
52621;DHT22;38515;53.160;6.990;2022-09-09T00:21:33;14.00;99.90
52621;DHT22;38515;53.160;6.990;2022-09-09T00:24:08;13.90;99.90
52621;DHT22;38515;53.160;6.990;2022-09-09T00:26:42;13.90;99.90
52621;DHT22;38515;53.160;6.990;2022-09-09T00:31:47;13.80;99.90
52621;DHT22;38515;53.160;6.990;2022-09-09T00:34:19;13.80;99.90
52621;DHT22;38515;53.160;6.990;2022-09-09T00:36:48;13.80;99.90
52621;DHT22;38515;53.160;6.990;2022-09-09T00:39:32;13.70;99.90
52621;DHT22;38515;53.160;6.990;2022-09-09T00:42:26;13.70;99.90
52621;DHT22;38515;53.160;6.990;2022-09-09T00:47:51;13.60;99.90
52621;DHT22;38515;53.160;6.990;2022-09-09T00:53:18;13.60;99.90
52621;DHT22;38515;53.160;6.990;2022-09-09T00:55:58;13.60;99.90
52621;DHT22;38515;53.160;6.990;2022-09-09T00:58:26;13.60;99.90
52621;DHT22;38515;53.160;6.990;2022-09-09T01:01:02;13.60;99.90
52621;DHT22;38515;53.160;6.990;2022-09-09T01:03:50;13.60;99.90
52621;DHT22;38515;53.160;6.990;2022-09-09T01:11:26;13.50;99.90
52621;DHT22;38515;53.160;6.990;2022-09-09T01:14:20;13.50;99.90
52621;DHT22;38515;53.160;6.990;2022-09-09T01:16:53;13.50;99.90
52621;DHT22;38515;53.160;6.990;2022-09-09T01:19:33;13.40;99.90
52621;DHT22;38515;53.160;6.990;2022-09-09T01:25:01;13.40;99.90
52621;DHT22;38515;53.160;6.990;2022-09-09T01:27:32;13.40;99.90
52621;DHT22;38515;53.160;6.990;2022-09-09T01:29:58;13.40;99.90
52621;DHT22;38515;53.160;6.990;2022-09-09T01:32:44;13.40;99.90
52621;DHT22;38515;53.160;6.990;2022-09-09T01:35:26;13.40;99.90
52621;DHT22;38515;53.160;6.990;2022-09-09T01:37:53;13.40;99.90
52621;DHT22;38515;53.160;6.990;2022-09-09T01:40:19;13.30;99.90
52621;DHT22;38515;53.160;6.990;2022-09-09T01:42:45;13.30;99.90
52621;DHT22;38515;53.160;6.990;2022-09-09T01:45:10;13.30;99.90
52621;DHT22;38515;53.160;6.990;2022-09-09T01:47:36;13.30;99.90
52621;DHT22;38515;53.160;6.990;2022-09-09T01:50:03;13.20;99.90
52621;DHT22;38515;53.160;6.990;2022-09-09T01:52:30;13.20;99.90
52621;DHT22;38515;53.160;6.990;2022-09-09T01:54:56;13.20;99.90
52621;DHT22;38515;53.160;6.990;2022-09-09T01:57:29;13.20;99.90
52621;DHT22;38515;53.160;6.990;2022-09-09T02:00:04;13.20;99.90
52621;DHT22;38515;53.160;6.990;2022-09-09T02:02:36;13.30;99.90
52621;DHT22;38515;53.160;6.990;2022-09-09T02:07:51;13.30;99.90
52621;DHT22;38515;53.160;6.990;2022-09-09T02:10:30;13.20;99.90
52621;DHT22;38515;53.160;6.990;2022-09-09T02:13:07;13.20;99.90
52621;DHT22;38515;53.160;6.990;2022-09-09T02:15:41;13.20;99.90
52621;DHT22;38515;53.160;6.990;2022-09-09T02:18:10;13.20;99.90
52621;DHT22;38515;53.160;6.990;2022-09-09T02:20:39;13.20;99.90
52621;DHT22;38515;53.160;6.990;2022-09-09T02:23:07;13.20;99.90
52621;DHT22;38515;53.160;6.990;2022-09-09T02:25:35;13.20;99.90
52621;DHT22;38515;53.160;6.990;2022-09-09T02:28:04;13.20;99.90
52621;DHT22;38515;53.160;6.990;2022-09-09T02:30:33;13.20;99.90
52621;DHT22;38515;53.160;6.990;2022-09-09T02:33:02;13.10;99.90
52621;DHT22;38515;53.160;6.990;2022-09-09T02:35:31;13.10;99.90
52621;DHT22;38515;53.160;6.990;2022-09-09T02:38:01;13.10;99.90
52621;DHT22;38515;53.160;6.990;2022-09-09T02:40:28;13.10;99.90
52621;DHT22;38515;53.160;6.990;2022-09-09T02:42:55;13.10;99.90
52621;DHT22;38515;53.160;6.990;2022-09-09T02:45:24;13.10;99.90
52621;DHT22;38515;53.160;6.990;2022-09-09T02:48:00;13.10;99.90
52621;DHT22;38515;53.160;6.990;2022-09-09T02:50:33;13.20;99.90
52621;DHT22;38515;53.160;6.990;2022-09-09T02:53:02;13.20;99.90
52621;DHT22;38515;53.160;6.990;2022-09-09T02:55:52;13.20;99.90
52621;DHT22;38515;53.160;6.990;2022-09-09T02:58:21;13.20;99.90
52621;DHT22;38515;53.160;6.990;2022-09-09T03:00:49;13.30;99.90
52621;DHT22;38515;53.160;6.990;2022-09-09T03:03:16;13.30;99.90
52621;DHT22;38515;53.160;6.990;2022-09-09T03:05:43;13.30;99.90
52621;DHT22;38515;53.160;6.990;2022-09-09T03:08:10;13.40;99.90
52621;DHT22;38515;53.160;6.990;2022-09-09T03:10:35;13.40;99.90
52621;DHT22;38515;53.160;6.990;2022-09-09T03:13:03;13.40;99.90
52621;DHT22;38515;53.160;6.990;2022-09-09T03:15:33;13.50;99.90
52621;DHT22;38515;53.160;6.990;2022-09-09T03:17:59;13.60;99.90
52621;DHT22;38515;53.160;6.990;2022-09-09T03:20:26;13.60;99.90
52621;DHT22;38515;53.160;6.990;2022-09-09T03:22:53;13.60;99.90
52621;DHT22;38515;53.160;6.990;2022-09-09T03:25:20;13.60;99.90
52621;DHT22;38515;53.160;6.990;2022-09-09T03:27:46;13.60;99.90
52621;DHT22;38515;53.160;6.990;2022-09-09T03:30:12;13.70;99.90
52621;DHT22;38515;53.160;6.990;2022-09-09T03:32:37;13.70;99.90
52621;DHT22;38515;53.160;6.990;2022-09-09T03:35:04;13.80;99.90
52621;DHT22;38515;53.160;6.990;2022-09-09T03:37:30;13.80;99.90
52621;DHT22;38515;53.160;6.990;2022-09-09T03:39:57;13.80;99.90
52621;DHT22;38515;53.160;6.990;2022-09-09T03:42:23;13.80;99.90
52621;DHT22;38515;53.160;6.990;2022-09-09T03:44:48;13.80;99.90
52621;DHT22;38515;53.160;6.990;2022-09-09T03:47:17;13.90;99.90
52621;DHT22;38515;53.160;6.990;2022-09-09T03:49:44;13.90;99.90
52621;DHT22;38515;53.160;6.990;2022-09-09T03:52:11;13.90;99.90
52621;DHT22;38515;53.160;6.990;2022-09-09T03:54:37;13.90;99.90
52621;DHT22;38515;53.160;6.990;2022-09-09T03:57:03;14.00;99.90
52621;DHT22;38515;53.160;6.990;2022-09-09T03:59:30;14.00;99.90
52621;DHT22;38515;53.160;6.990;2022-09-09T04:01:56;14.00;99.90
52621;DHT22;38515;53.160;6.990;2022-09-09T04:04:25;14.00;99.90
52621;DHT22;38515;53.160;6.990;2022-09-09T04:06:52;14.10;99.90
52621;DHT22;38515;53.160;6.990;2022-09-09T04:09:18;14.10;99.90
52621;DHT22;38515;53.160;6.990;2022-09-09T04:11:44;14.10;99.90
52621;DHT22;38515;53.160;6.990;2022-09-09T04:14:12;14.20;99.90
52621;DHT22;38515;53.160;6.990;2022-09-09T04:16:38;14.20;99.90
52621;DHT22;38515;53.160;6.990;2022-09-09T04:19:04;14.20;99.90
52621;DHT22;38515;53.160;6.990;2022-09-09T04:21:32;14.20;99.90
52621;DHT22;38515;53.160;6.990;2022-09-09T04:23:58;14.20;99.90
52621;DHT22;38515;53.160;6.990;2022-09-09T04:26:23;14.20;99.90
52621;DHT22;38515;53.160;6.990;2022-09-09T04:28:49;14.20;99.90
52621;DHT22;38515;53.160;6.990;2022-09-09T04:31:18;14.30;99.90
52621;DHT22;38515;53.160;6.990;2022-09-09T04:33:45;14.20;99.90
52621;DHT22;38515;53.160;6.990;2022-09-09T04:36:12;14.30;99.90
52621;DHT22;38515;53.160;6.990;2022-09-09T04:38:38;14.20;99.90
52621;DHT22;38515;53.160;6.990;2022-09-09T04:41:05;14.30;99.90
52621;DHT22;38515;53.160;6.990;2022-09-09T04:43:31;14.30;99.90
52621;DHT22;38515;53.160;6.990;2022-09-09T04:45:57;14.30;99.90
52621;DHT22;38515;53.160;6.990;2022-09-09T04:48:24;14.30;99.90
52621;DHT22;38515;53.160;6.990;2022-09-09T04:50:58;14.30;99.90
52621;DHT22;38515;53.160;6.990;2022-09-09T04:53:25;14.30;99.90
52621;DHT22;38515;53.160;6.990;2022-09-09T04:55:52;14.20;99.90
52621;DHT22;38515;53.160;6.990;2022-09-09T04:58:18;14.20;99.90
52621;DHT22;38515;53.160;6.990;2022-09-09T05:00:44;14.20;99.90
52621;DHT22;38515;53.160;6.990;2022-09-09T05:03:10;14.20;99.90
52621;DHT22;38515;53.160;6.990;2022-09-09T05:05:36;14.20;99.90
52621;DHT22;38515;53.160;6.990;2022-09-09T05:08:03;14.10;99.90
52621;DHT22;38515;53.160;6.990;2022-09-09T05:10:30;14.10;99.90
52621;DHT22;38515;53.160;6.990;2022-09-09T05:12:56;14.10;99.90
52621;DHT22;38515;53.160;6.990;2022-09-09T05:15:22;14.10;99.90
52621;DHT22;38515;53.160;6.990;2022-09-09T05:17:48;14.10;99.90
52621;DHT22;38515;53.160;6.990;2022-09-09T05:20:14;14.10;99.90
52621;DHT22;38515;53.160;6.990;2022-09-09T05:22:40;14.10;99.90
52621;DHT22;38515;53.160;6.990;2022-09-09T05:25:06;14.10;99.90
52621;DHT22;38515;53.160;6.990;2022-09-09T05:27:34;14.00;99.90
52621;DHT22;38515;53.160;6.990;2022-09-09T05:30:00;14.00;99.90
52621;DHT22;38515;53.160;6.990;2022-09-09T05:32:25;14.00;99.90
52621;DHT22;38515;53.160;6.990;2022-09-09T05:34:51;14.00;99.90
52621;DHT22;38515;53.160;6.990;2022-09-09T05:37:18;14.00;99.90
52621;DHT22;38515;53.160;6.990;2022-09-09T05:39:44;14.00;99.90
52621;DHT22;38515;53.160;6.990;2022-09-09T05:42:10;14.00;99.90
52621;DHT22;38515;53.160;6.990;2022-09-09T05:44:36;14.00;99.90
52621;DHT22;38515;53.160;6.990;2022-09-09T05:47:03;14.00;99.90
52621;DHT22;38515;53.160;6.990;2022-09-09T05:49:28;14.10;99.90
52621;DHT22;38515;53.160;6.990;2022-09-09T05:51:54;14.00;99.90
52621;DHT22;38515;53.160;6.990;2022-09-09T05:54:20;14.00;99.90
52621;DHT22;38515;53.160;6.990;2022-09-09T05:56:46;14.00;99.90
52621;DHT22;38515;53.160;6.990;2022-09-09T05:59:12;14.00;99.90
52621;DHT22;38515;53.160;6.990;2022-09-09T06:01:38;14.00;99.90
52621;DHT22;38515;53.160;6.990;2022-09-09T06:04:06;14.00;99.90
52621;DHT22;38515;53.160;6.990;2022-09-09T06:06:34;14.00;99.90
52621;DHT22;38515;53.160;6.990;2022-09-09T06:09:08;14.00;99.90
52621;DHT22;38515;53.160;6.990;2022-09-09T06:11:37;14.00;99.90
52621;DHT22;38515;53.160;6.990;2022-09-09T06:14:04;14.00;99.90
52621;DHT22;38515;53.160;6.990;2022-09-09T06:16:30;14.10;99.90
52621;DHT22;38515;53.160;6.990;2022-09-09T06:19:04;14.10;99.90
52621;DHT22;38515;53.160;6.990;2022-09-09T06:21:32;14.00;99.90
52621;DHT22;38515;53.160;6.990;2022-09-09T06:23:59;15.30;99.90
52621;DHT22;38515;53.160;6.990;2022-09-09T06:26:27;14.10;99.90
52621;DHT22;38515;53.160;6.990;2022-09-09T06:28:55;14.10;99.90
52621;DHT22;38515;53.160;6.990;2022-09-09T06:31:24;14.10;99.90
52621;DHT22;38515;53.160;6.990;2022-09-09T06:33:52;14.10;99.90
52621;DHT22;38515;53.160;6.990;2022-09-09T06:36:20;14.10;99.90
52621;DHT22;38515;53.160;6.990;2022-09-09T06:38:46;14.20;99.90
52621;DHT22;38515;53.160;6.990;2022-09-09T06:41:14;14.20;99.90
52621;DHT22;38515;53.160;6.990;2022-09-09T06:43:40;14.20;99.90
52621;DHT22;38515;53.160;6.990;2022-09-09T06:46:09;14.30;99.90
52621;DHT22;38515;53.160;6.990;2022-09-09T06:48:36;14.20;99.90
52621;DHT22;38515;53.160;6.990;2022-09-09T06:51:04;14.30;99.90
52621;DHT22;38515;53.160;6.990;2022-09-09T06:53:34;14.40;99.90
52621;DHT22;38515;53.160;6.990;2022-09-09T06:56:02;14.40;99.90
52621;DHT22;38515;53.160;6.990;2022-09-09T06:58:42;14.50;99.90
52621;DHT22;38515;53.160;6.990;2022-09-09T07:01:11;14.50;99.90
52621;DHT22;38515;53.160;6.990;2022-09-09T07:03:38;14.60;99.90
52621;DHT22;38515;53.160;6.990;2022-09-09T07:06:08;14.70;99.90
52621;DHT22;38515;53.160;6.990;2022-09-09T07:08:39;14.80;99.90
52621;DHT22;38515;53.160;6.990;2022-09-09T07:11:07;14.90;99.90
52621;DHT22;38515;53.160;6.990;2022-09-09T07:13:34;15.00;99.90
52621;DHT22;38515;53.160;6.990;2022-09-09T07:16:05;15.30;99.90
52621;DHT22;38515;53.160;6.990;2022-09-09T07:18:31;15.70;99.90
52621;DHT22;38515;53.160;6.990;2022-09-09T07:20:57;16.10;99.90
52621;DHT22;38515;53.160;6.990;2022-09-09T07:23:23;16.20;99.90
52621;DHT22;38515;53.160;6.990;2022-09-09T07:25:49;16.20;99.90
52621;DHT22;38515;53.160;6.990;2022-09-09T07:28:16;16.20;99.90
52621;DHT22;38515;53.160;6.990;2022-09-09T07:30:42;16.20;99.90
52621;DHT22;38515;53.160;6.990;2022-09-09T07:33:09;16.20;99.90
52621;DHT22;38515;53.160;6.990;2022-09-09T07:35:35;16.10;99.90
52621;DHT22;38515;53.160;6.990;2022-09-09T07:38:03;16.30;99.90
52621;DHT22;38515;53.160;6.990;2022-09-09T07:40:33;16.50;99.90
52621;DHT22;38515;53.160;6.990;2022-09-09T07:43:00;16.50;99.90
52621;DHT22;38515;53.160;6.990;2022-09-09T07:45:26;16.40;99.90
52621;DHT22;38515;53.160;6.990;2022-09-09T07:47:54;16.30;99.90
52621;DHT22;38515;53.160;6.990;2022-09-09T07:50:23;16.20;99.90
52621;DHT22;38515;53.160;6.990;2022-09-09T07:52:51;16.20;99.90
52621;DHT22;38515;53.160;6.990;2022-09-09T07:55:17;16.40;99.90
52621;DHT22;38515;53.160;6.990;2022-09-09T07:57:42;16.70;99.90
52621;DHT22;38515;53.160;6.990;2022-09-09T08:00:09;17.10;99.90
52621;DHT22;38515;53.160;6.990;2022-09-09T08:02:36;17.30;99.90
52621;DHT22;38515;53.160;6.990;2022-09-09T08:05:02;17.60;99.90
52621;DHT22;38515;53.160;6.990;2022-09-09T08:07:28;17.90;99.90
52621;DHT22;38515;53.160;6.990;2022-09-09T08:09:54;18.00;99.90
52621;DHT22;38515;53.160;6.990;2022-09-09T08:12:21;18.20;99.90
52621;DHT22;38515;53.160;6.990;2022-09-09T08:14:48;18.00;99.90
52621;DHT22;38515;53.160;6.990;2022-09-09T08:17:14;17.90;99.90
52621;DHT22;38515;53.160;6.990;2022-09-09T08:19:40;17.90;99.90
52621;DHT22;38515;53.160;6.990;2022-09-09T08:22:06;17.90;99.90
52621;DHT22;38515;53.160;6.990;2022-09-09T08:24:33;17.70;99.90
52621;DHT22;38515;53.160;6.990;2022-09-09T08:26:59;17.50;99.90
52621;DHT22;38515;53.160;6.990;2022-09-09T08:29:25;17.40;99.90
52621;DHT22;38515;53.160;6.990;2022-09-09T08:31:52;17.50;99.90
52621;DHT22;38515;53.160;6.990;2022-09-09T08:34:20;17.40;99.90
52621;DHT22;38515;53.160;6.990;2022-09-09T08:36:48;17.30;99.90
52621;DHT22;38515;53.160;6.990;2022-09-09T08:39:16;17.30;99.90
52621;DHT22;38515;53.160;6.990;2022-09-09T08:41:58;17.30;99.90
52621;DHT22;38515;53.160;6.990;2022-09-09T08:47:26;17.30;99.90
52621;DHT22;38515;53.160;6.990;2022-09-09T08:53:02;17.20;99.90
52621;DHT22;38515;53.160;6.990;2022-09-09T08:58:12;17.30;99.90
52621;DHT22;38515;53.160;6.990;2022-09-09T09:06:29;17.40;99.90
52621;DHT22;38515;53.160;6.990;2022-09-09T09:11:44;17.50;99.90
52621;DHT22;38515;53.160;6.990;2022-09-09T09:14:19;17.80;99.90
52621;DHT22;38515;53.160;6.990;2022-09-09T09:16:56;18.00;99.90
52621;DHT22;38515;53.160;6.990;2022-09-09T09:19:23;18.00;99.90
52621;DHT22;38515;53.160;6.990;2022-09-09T09:22:15;18.20;99.90
52621;DHT22;38515;53.160;6.990;2022-09-09T09:24:49;18.60;99.90
52621;DHT22;38515;53.160;6.990;2022-09-09T09:27:26;18.90;99.90
52621;DHT22;38515;53.160;6.990;2022-09-09T09:29:55;19.20;99.90
52621;DHT22;38515;53.160;6.990;2022-09-09T09:32:24;19.40;99.90
52621;DHT22;38515;53.160;6.990;2022-09-09T09:34:55;19.60;99.90
52621;DHT22;38515;53.160;6.990;2022-09-09T09:37:32;19.60;99.90
52621;DHT22;38515;53.160;6.990;2022-09-09T09:40:10;19.60;99.90
52621;DHT22;38515;53.160;6.990;2022-09-09T09:42:37;19.60;99.90
52621;DHT22;38515;53.160;6.990;2022-09-09T09:45:14;19.30;99.90
52621;DHT22;38515;53.160;6.990;2022-09-09T09:47:43;19.10;99.90
52621;DHT22;38515;53.160;6.990;2022-09-09T09:50:17;18.80;99.90
52621;DHT22;38515;53.160;6.990;2022-09-09T09:52:54;18.80;99.90
52621;DHT22;38515;53.160;6.990;2022-09-09T09:55:21;18.70;99.90
52621;DHT22;38515;53.160;6.990;2022-09-09T09:57:49;18.70;99.90
52621;DHT22;38515;53.160;6.990;2022-09-09T10:00:18;18.90;99.90
52621;DHT22;38515;53.160;6.990;2022-09-09T10:02:45;19.10;99.90
52621;DHT22;38515;53.160;6.990;2022-09-09T10:05:14;19.20;99.90
52621;DHT22;38515;53.160;6.990;2022-09-09T10:07:40;19.20;99.90
52621;DHT22;38515;53.160;6.990;2022-09-09T10:10:10;19.60;99.90
52621;DHT22;38515;53.160;6.990;2022-09-09T10:12:55;19.40;99.90
52621;DHT22;38515;53.160;6.990;2022-09-09T10:18:00;19.80;99.90
52621;DHT22;38515;53.160;6.990;2022-09-09T10:24:03;19.70;99.90
52621;DHT22;38515;53.160;6.990;2022-09-09T10:26:44;19.70;99.90
52621;DHT22;38515;53.160;6.990;2022-09-09T10:31:54;20.10;99.90
52621;DHT22;38515;53.160;6.990;2022-09-09T10:37:05;20.30;99.90
52621;DHT22;38515;53.160;6.990;2022-09-09T10:39:37;20.40;99.90
52621;DHT22;38515;53.160;6.990;2022-09-09T10:42:09;20.50;99.90
52621;DHT22;38515;53.160;6.990;2022-09-09T10:44:50;20.50;99.90
52621;DHT22;38515;53.160;6.990;2022-09-09T10:50:12;20.60;99.90
52621;DHT22;38515;53.160;6.990;2022-09-09T10:52:50;20.80;99.90
52621;DHT22;38515;53.160;6.990;2022-09-09T10:55:20;20.90;99.90
52621;DHT22;38515;53.160;6.990;2022-09-09T10:57:50;20.90;99.90
52621;DHT22;38515;53.160;6.990;2022-09-09T11:00:21;20.80;99.90
52621;DHT22;38515;53.160;6.990;2022-09-09T11:02:53;20.70;99.90
52621;DHT22;38515;53.160;6.990;2022-09-09T11:05:42;20.60;99.90
52621;DHT22;38515;53.160;6.990;2022-09-09T11:08:12;20.40;99.90
52621;DHT22;38515;53.160;6.990;2022-09-09T11:10:43;20.20;99.90
52621;DHT22;38515;53.160;6.990;2022-09-09T11:13:19;20.10;99.90
52621;DHT22;38515;53.160;6.990;2022-09-09T11:15:52;20.10;99.90
52621;DHT22;38515;53.160;6.990;2022-09-09T11:18:21;20.20;99.90
52621;DHT22;38515;53.160;6.990;2022-09-09T11:20:52;20.30;99.90
52621;DHT22;38515;53.160;6.990;2022-09-09T11:23:34;20.40;99.90
52621;DHT22;38515;53.160;6.990;2022-09-09T11:26:03;20.50;99.90
52621;DHT22;38515;53.160;6.990;2022-09-09T11:31:47;20.40;99.90
52621;DHT22;38515;53.160;6.990;2022-09-09T11:39:54;20.10;99.90
52621;DHT22;38515;53.160;6.990;2022-09-09T11:42:26;20.20;99.90
52621;DHT22;38515;53.160;6.990;2022-09-09T11:44:52;20.30;99.90
52621;DHT22;38515;53.160;6.990;2022-09-09T11:49:55;20.60;99.90
52621;DHT22;38515;53.160;6.990;2022-09-09T11:52:35;20.60;99.90
52621;DHT22;38515;53.160;6.990;2022-09-09T11:55:10;20.60;99.90
52621;DHT22;38515;53.160;6.990;2022-09-09T11:57:39;20.60;99.90
52621;DHT22;38515;53.160;6.990;2022-09-09T12:00:05;20.70;99.90
52621;DHT22;38515;53.160;6.990;2022-09-09T12:02:31;20.90;99.90
52621;DHT22;38515;53.160;6.990;2022-09-09T12:05:05;20.80;99.90
52621;DHT22;38515;53.160;6.990;2022-09-09T12:10:21;20.70;99.90
52621;DHT22;38515;53.160;6.990;2022-09-09T12:12:48;20.60;99.90
52621;DHT22;38515;53.160;6.990;2022-09-09T12:15:21;20.50;99.90
52621;DHT22;38515;53.160;6.990;2022-09-09T12:17:51;20.50;99.90
52621;DHT22;38515;53.160;6.990;2022-09-09T12:20:21;20.40;99.90
52621;DHT22;38515;53.160;6.990;2022-09-09T12:28:06;20.00;99.90
52621;DHT22;38515;53.160;6.990;2022-09-09T12:33:12;19.90;99.90
52621;DHT22;38515;53.160;6.990;2022-09-09T12:35:39;19.90;99.90
52621;DHT22;38515;53.160;6.990;2022-09-09T12:38:17;20.00;99.90
52621;DHT22;38515;53.160;6.990;2022-09-09T12:40:55;20.00;99.90
52621;DHT22;38515;53.160;6.990;2022-09-09T12:43:24;20.10;99.90
52621;DHT22;38515;53.160;6.990;2022-09-09T12:45:52;20.20;99.90
52621;DHT22;38515;53.160;6.990;2022-09-09T12:48:29;20.40;99.90
52621;DHT22;38515;53.160;6.990;2022-09-09T12:50:57;20.50;99.90
52621;DHT22;38515;53.160;6.990;2022-09-09T12:53:29;20.50;99.90
52621;DHT22;38515;53.160;6.990;2022-09-09T12:56:00;20.60;99.90
52621;DHT22;38515;53.160;6.990;2022-09-09T12:58:29;20.60;99.90
52621;DHT22;38515;53.160;6.990;2022-09-09T13:00:59;20.70;99.90
52621;DHT22;38515;53.160;6.990;2022-09-09T13:03:26;20.80;99.90
52621;DHT22;38515;53.160;6.990;2022-09-09T13:05:53;21.00;99.90
52621;DHT22;38515;53.160;6.990;2022-09-09T13:08:19;21.20;99.90
52621;DHT22;38515;53.160;6.990;2022-09-09T13:10:51;21.20;99.90
52621;DHT22;38515;53.160;6.990;2022-09-09T13:16:19;21.10;99.90
52621;DHT22;38515;53.160;6.990;2022-09-09T13:18:46;21.10;99.90
52621;DHT22;38515;53.160;6.990;2022-09-09T13:21:12;21.10;99.90
52621;DHT22;38515;53.160;6.990;2022-09-09T13:23:39;21.20;99.90
52621;DHT22;38515;53.160;6.990;2022-09-09T13:26:20;21.20;99.90
52621;DHT22;38515;53.160;6.990;2022-09-09T13:28:48;21.30;99.90
52621;DHT22;38515;53.160;6.990;2022-09-09T13:31:24;21.30;99.90
52621;DHT22;38515;53.160;6.990;2022-09-09T13:33:53;21.20;99.90
52621;DHT22;38515;53.160;6.990;2022-09-09T13:36:29;21.20;99.90
52621;DHT22;38515;53.160;6.990;2022-09-09T13:38:57;21.10;99.90
52621;DHT22;38515;53.160;6.990;2022-09-09T13:41:32;21.00;99.90
52621;DHT22;38515;53.160;6.990;2022-09-09T13:43:58;21.00;99.90
52621;DHT22;38515;53.160;6.990;2022-09-09T13:46:26;21.00;99.90
52621;DHT22;38515;53.160;6.990;2022-09-09T13:48:56;20.90;99.90
52621;DHT22;38515;53.160;6.990;2022-09-09T13:51:33;20.80;99.90
52621;DHT22;38515;53.160;6.990;2022-09-09T13:54:00;20.70;99.90
52621;DHT22;38515;53.160;6.990;2022-09-09T13:56:27;20.50;99.90
52621;DHT22;38515;53.160;6.990;2022-09-09T13:58:53;20.40;99.90
52621;DHT22;38515;53.160;6.990;2022-09-09T14:01:19;20.30;99.90
52621;DHT22;38515;53.160;6.990;2022-09-09T14:03:45;20.20;99.90
52621;DHT22;38515;53.160;6.990;2022-09-09T14:06:11;20.10;99.90
52621;DHT22;38515;53.160;6.990;2022-09-09T14:08:37;19.90;99.90
52621;DHT22;38515;53.160;6.990;2022-09-09T14:11:03;19.70;99.90
52621;DHT22;38515;53.160;6.990;2022-09-09T14:13:30;19.60;99.90
52621;DHT22;38515;53.160;6.990;2022-09-09T14:15:55;19.40;99.90
52621;DHT22;38515;53.160;6.990;2022-09-09T14:18:22;19.30;99.90
52621;DHT22;38515;53.160;6.990;2022-09-09T14:20:51;19.30;99.90
52621;DHT22;38515;53.160;6.990;2022-09-09T14:23:17;19.20;99.90
52621;DHT22;38515;53.160;6.990;2022-09-09T14:25:43;19.10;99.90
52621;DHT22;38515;53.160;6.990;2022-09-09T14:28:10;18.90;99.90
52621;DHT22;38515;53.160;6.990;2022-09-09T14:30:39;18.70;99.90
52621;DHT22;38515;53.160;6.990;2022-09-09T14:33:06;18.40;99.90
52621;DHT22;38515;53.160;6.990;2022-09-09T14:35:32;18.20;99.90
52621;DHT22;38515;53.160;6.990;2022-09-09T14:37:59;18.00;99.90
52621;DHT22;38515;53.160;6.990;2022-09-09T14:40:26;17.90;99.90
52621;DHT22;38515;53.160;6.990;2022-09-09T14:42:53;17.90;99.90
52621;DHT22;38515;53.160;6.990;2022-09-09T14:45:19;17.90;99.90
52621;DHT22;38515;53.160;6.990;2022-09-09T14:47:47;17.90;99.90
52621;DHT22;38515;53.160;6.990;2022-09-09T14:50:12;18.00;99.90
52621;DHT22;38515;53.160;6.990;2022-09-09T14:52:39;18.00;99.90
52621;DHT22;38515;53.160;6.990;2022-09-09T14:55:05;18.00;99.90
52621;DHT22;38515;53.160;6.990;2022-09-09T14:57:31;18.00;99.90
52621;DHT22;38515;53.160;6.990;2022-09-09T14:59:57;18.00;99.90
52621;DHT22;38515;53.160;6.990;2022-09-09T15:02:23;18.10;99.90
52621;DHT22;38515;53.160;6.990;2022-09-09T15:04:49;18.40;99.90
52621;DHT22;38515;53.160;6.990;2022-09-09T15:07:16;18.10;99.90
52621;DHT22;38515;53.160;6.990;2022-09-09T15:09:45;18.20;99.90
52621;DHT22;38515;53.160;6.990;2022-09-09T15:12:13;18.30;99.90
52621;DHT22;38515;53.160;6.990;2022-09-09T15:14:39;18.30;99.90
52621;DHT22;38515;53.160;6.990;2022-09-09T15:17:05;18.30;99.90
52621;DHT22;38515;53.160;6.990;2022-09-09T15:19:31;18.30;99.90
52621;DHT22;38515;53.160;6.990;2022-09-09T15:21:58;18.30;99.90
52621;DHT22;38515;53.160;6.990;2022-09-09T15:24:25;18.30;99.90
52621;DHT22;38515;53.160;6.990;2022-09-09T15:26:52;18.30;99.90
52621;DHT22;38515;53.160;6.990;2022-09-09T15:29:19;18.30;99.90
52621;DHT22;38515;53.160;6.990;2022-09-09T15:31:45;18.20;99.90
52621;DHT22;38515;53.160;6.990;2022-09-09T15:34:12;18.20;99.90
52621;DHT22;38515;53.160;6.990;2022-09-09T15:36:41;18.30;99.90
52621;DHT22;38515;53.160;6.990;2022-09-09T15:39:09;18.20;99.90
52621;DHT22;38515;53.160;6.990;2022-09-09T15:41:38;18.10;99.90
52621;DHT22;38515;53.160;6.990;2022-09-09T15:44:04;18.10;99.90
52621;DHT22;38515;53.160;6.990;2022-09-09T15:46:36;18.10;99.90
52621;DHT22;38515;53.160;6.990;2022-09-09T15:49:08;18.10;99.90
52621;DHT22;38515;53.160;6.990;2022-09-09T15:51:37;18.00;99.90
52621;DHT22;38515;53.160;6.990;2022-09-09T15:54:04;18.00;99.90
52621;DHT22;38515;53.160;6.990;2022-09-09T15:56:31;17.90;99.90
52621;DHT22;38515;53.160;6.990;2022-09-09T15:58:59;17.90;99.90
52621;DHT22;38515;53.160;6.990;2022-09-09T16:01:26;17.90;99.90
52621;DHT22;38515;53.160;6.990;2022-09-09T16:03:52;17.80;99.90
52621;DHT22;38515;53.160;6.990;2022-09-09T16:06:21;17.80;99.90
52621;DHT22;38515;53.160;6.990;2022-09-09T16:08:50;17.90;99.90
52621;DHT22;38515;53.160;6.990;2022-09-09T16:11:18;17.80;99.90
52621;DHT22;38515;53.160;6.990;2022-09-09T16:13:47;17.90;99.90
52621;DHT22;38515;53.160;6.990;2022-09-09T16:16:16;18.00;99.90
52621;DHT22;38515;53.160;6.990;2022-09-09T16:18:44;18.00;99.90
52621;DHT22;38515;53.160;6.990;2022-09-09T16:21:15;18.10;99.90
52621;DHT22;38515;53.160;6.990;2022-09-09T16:23:42;18.30;99.90
52621;DHT22;38515;53.160;6.990;2022-09-09T16:26:11;18.30;99.90
52621;DHT22;38515;53.160;6.990;2022-09-09T16:28:38;18.30;99.90
52621;DHT22;38515;53.160;6.990;2022-09-09T16:31:07;18.40;99.90
52621;DHT22;38515;53.160;6.990;2022-09-09T16:33:33;18.40;99.90
52621;DHT22;38515;53.160;6.990;2022-09-09T16:36:06;18.50;99.90
52621;DHT22;38515;53.160;6.990;2022-09-09T16:38:32;18.50;99.90
52621;DHT22;38515;53.160;6.990;2022-09-09T16:40:59;18.60;99.90
52621;DHT22;38515;53.160;6.990;2022-09-09T16:43:25;18.60;99.90
52621;DHT22;38515;53.160;6.990;2022-09-09T16:45:51;18.60;99.90
52621;DHT22;38515;53.160;6.990;2022-09-09T16:48:17;18.60;99.90
52621;DHT22;38515;53.160;6.990;2022-09-09T16:50:43;18.50;99.90
52621;DHT22;38515;53.160;6.990;2022-09-09T16:53:09;18.40;99.90
52621;DHT22;38515;53.160;6.990;2022-09-09T16:55:39;18.40;99.90
52621;DHT22;38515;53.160;6.990;2022-09-09T16:58:09;18.40;99.90
52621;DHT22;38515;53.160;6.990;2022-09-09T17:00:35;18.20;99.90